createdAt,value
2023-04-20T00:04:18.716Z,89.31
2023-04-20T00:09:20.520Z,89.11
2023-04-20T00:14:22.602Z,89.08
2023-04-20T00:19:24.410Z,89.53
2023-04-20T00:24:26.540Z,89.39
2023-04-20T00:29:28.438Z,89.53
2023-04-20T00:34:32.932Z,89.75
2023-04-20T00:39:36.103Z,89.79
2023-04-20T00:44:38.871Z,89.76
2023-04-20T00:49:40.876Z,89.95
2023-04-20T00:54:45.558Z,89.90
2023-04-20T00:59:48.009Z,89.97
2023-04-20T01:04:50.402Z,90.10
2023-04-20T01:09:52.716Z,90.07
2023-04-20T01:14:54.902Z,89.79
2023-04-20T01:19:56.694Z,89.57
2023-04-20T01:24:59.164Z,89.85
2023-04-20T01:30:01.924Z,89.99
2023-04-20T01:35:05.351Z,90.12
2023-04-20T01:40:13.017Z,90.08
2023-04-20T01:45:15.164Z,90.03
2023-04-20T01:50:17.049Z,90.10
2023-04-20T01:55:20.276Z,89.99
2023-04-20T02:00:22.763Z,89.91
2023-04-20T02:05:25.162Z,90.22
2023-04-20T02:10:27.021Z,90.20
2023-04-20T02:15:29.446Z,90.06
2023-04-20T02:20:31.401Z,90.00
2023-04-20T02:25:33.721Z,89.83
2023-04-20T02:30:35.920Z,90.04
2023-04-20T02:35:39.055Z,89.96
2023-04-20T02:40:41.018Z,90.27
2023-04-20T02:45:43.405Z,90.59
2023-04-20T02:50:45.894Z,90.76
2023-04-20T02:55:56.933Z,90.77
2023-04-20T03:01:09.968Z,90.80
2023-04-20T03:06:12.707Z,90.82
2023-04-20T03:11:16.160Z,90.68
2023-04-20T03:16:18.518Z,90.47
2023-04-20T03:21:26.701Z,90.59
2023-04-20T03:26:29.428Z,90.47
2023-04-20T03:31:57.643Z,90.44
2023-04-20T03:37:00.321Z,90.39
2023-04-20T03:42:02.204Z,90.29
2023-04-20T03:47:04.820Z,90.33
2023-04-20T03:52:07.391Z,90.47
2023-04-20T03:57:10.397Z,90.23
2023-04-20T04:02:15.974Z,89.70
2023-04-20T04:07:20.772Z,89.39
2023-04-20T04:12:23.220Z,89.42
2023-04-20T04:17:26.243Z,89.21
2023-04-20T04:22:31.557Z,88.57
2023-04-20T04:28:12.842Z,88.87
2023-04-20T04:33:22.042Z,89.19
2023-04-20T04:38:25.362Z,89.38
2023-04-20T04:43:27.573Z,89.46
2023-04-20T04:48:41.130Z,89.28
2023-04-20T04:53:45.242Z,89.11
2023-04-20T04:58:47.460Z,89.07
2023-04-20T05:03:49.665Z,88.93
2023-04-20T05:08:52.201Z,88.46
2023-04-20T05:13:54.726Z,87.33
2023-04-20T05:18:57.084Z,87.26
2023-04-20T05:23:58.988Z,87.07
2023-04-20T05:29:01.954Z,86.34
2023-04-20T05:34:03.955Z,85.45
2023-04-20T05:39:06.282Z,86.10
2023-04-20T05:44:08.203Z,85.82
2023-04-20T05:49:10.532Z,83.83
2023-04-20T05:54:12.637Z,83.65
2023-04-20T05:59:16.165Z,84.84
2023-04-20T06:04:19.015Z,85.10
2023-04-20T06:09:21.783Z,83.80
2023-04-20T06:14:23.781Z,82.13
2023-04-20T06:19:25.858Z,83.26
2023-04-20T06:24:28.105Z,82.89
2023-04-20T06:29:30.466Z,81.42
2023-04-20T06:34:32.728Z,79.27
2023-04-20T06:39:35.684Z,79.56
2023-04-20T06:44:37.517Z,78.41
2023-04-20T06:49:39.550Z,77.92
2023-04-20T06:54:41.324Z,77.75
2023-04-20T06:59:43.380Z,76.93
2023-04-20T07:04:45.472Z,76.36
2023-04-20T07:09:47.431Z,76.33
2023-04-20T07:14:49.354Z,74.21
2023-04-20T07:19:52.872Z,75.40
2023-04-20T07:24:54.907Z,72.67
2023-04-20T07:29:58.800Z,70.88
2023-04-20T07:35:01.048Z,72.80
2023-04-20T07:40:06.629Z,71.00
2023-04-20T07:45:11.150Z,72.57
2023-04-20T07:50:13.591Z,70.20
2023-04-20T07:55:16.742Z,70.17
2023-04-20T08:00:19.692Z,68.97
2023-04-20T08:05:23.080Z,71.63
2023-04-20T08:10:25.827Z,72.08
2023-04-20T08:15:28.088Z,69.46
2023-04-20T08:20:30.593Z,69.26
2023-04-20T08:25:32.686Z,70.38
2023-04-20T08:30:35.157Z,71.01
2023-04-20T08:35:37.417Z,69.14
2023-04-20T08:40:40.540Z,70.00
2023-04-20T08:45:49.345Z,68.62
2023-04-20T08:50:51.763Z,67.36
2023-04-20T08:55:53.675Z,66.42
2023-04-20T09:00:55.897Z,64.81
2023-04-20T09:05:58.059Z,65.52
2023-04-20T09:11:00.243Z,65.86
2023-04-20T09:16:13.622Z,64.62
2023-04-20T09:21:18.681Z,63.61
2023-04-20T09:26:21.153Z,62.63
2023-04-20T09:31:24.429Z,62.70
2023-04-20T09:36:41.273Z,61.70
2023-04-20T09:41:44.998Z,62.57
2023-04-20T09:46:47.272Z,61.12
2023-04-20T09:51:50.648Z,61.74
2023-04-20T09:56:56.115Z,61.88
2023-04-20T10:01:58.826Z,59.71
2023-04-20T10:07:06.121Z,60.54
2023-04-20T10:12:10.178Z,57.54
2023-04-20T10:17:12.220Z,56.10
2023-04-20T10:22:30.963Z,56.23
2023-04-20T10:27:33.271Z,56.24
2023-04-20T10:32:35.655Z,58.25
2023-04-20T10:37:48.853Z,58.05
2023-04-20T10:42:50.926Z,57.24
2023-04-20T10:47:52.810Z,57.98
2023-04-20T10:52:54.784Z,56.60
2023-04-20T10:57:57.064Z,58.26
2023-04-20T11:02:59.620Z,55.13
2023-04-20T11:08:02.047Z,56.30
2023-04-20T11:13:04.156Z,57.14
2023-04-20T11:18:08.214Z,58.08
2023-04-20T11:23:11.276Z,55.99
2023-04-20T11:28:13.101Z,56.38
2023-04-20T11:33:16.429Z,55.35
2023-04-20T11:38:29.805Z,56.73
2023-04-20T11:43:32.607Z,56.75
2023-04-20T11:48:34.522Z,56.74
2023-04-20T11:53:37.985Z,58.37
2023-04-20T11:58:39.765Z,58.53
2023-04-20T12:03:43.043Z,59.28
2023-04-20T12:08:48.055Z,61.31
2023-04-20T12:13:50.482Z,58.90
2023-04-20T12:18:52.370Z,56.22
2023-04-20T12:23:54.454Z,55.57
2023-04-20T12:28:57.756Z,54.83
2023-04-20T12:34:00.613Z,54.66
2023-04-20T12:39:03.668Z,53.85
2023-04-20T12:44:07.211Z,54.32
2023-04-20T12:49:10.585Z,55.02
2023-04-20T12:54:12.903Z,55.53
2023-04-20T12:59:15.667Z,55.46
2023-04-20T13:04:18.226Z,55.65
2023-04-20T13:09:20.978Z,56.38
2023-04-20T13:14:25.833Z,57.50
2023-04-20T13:19:30.227Z,57.37
2023-04-20T13:24:32.323Z,57.80
2023-04-20T13:29:34.645Z,57.50
2023-04-20T13:34:37.072Z,57.31
2023-04-20T13:39:38.977Z,56.91
2023-04-20T13:44:41.105Z,56.12
2023-04-20T13:49:43.212Z,57.63
2023-04-20T13:54:45.229Z,58.07
2023-04-20T13:59:47.110Z,57.49
2023-04-20T14:04:49.689Z,56.34
2023-04-20T14:09:53.952Z,55.56
2023-04-20T14:15:00.447Z,54.44
2023-04-20T14:20:04.471Z,54.83
2023-04-20T14:25:07.951Z,53.06
2023-04-20T14:30:10.428Z,53.37
2023-04-20T14:35:12.606Z,53.02
2023-04-20T14:40:15.643Z,52.37
2023-04-20T14:45:17.888Z,53.33
2023-04-20T14:50:20.243Z,53.76
2023-04-20T14:55:26.299Z,53.46
2023-04-20T15:00:28.451Z,52.83
2023-04-20T15:05:30.987Z,52.73
2023-04-20T15:10:33.129Z,52.81
2023-04-20T15:15:47.495Z,52.22
2023-04-20T15:20:52.704Z,52.63
2023-04-20T15:25:55.231Z,52.21
2023-04-20T15:30:57.128Z,52.08
2023-04-20T15:35:59.262Z,52.43
2023-04-20T15:41:01.099Z,51.78
2023-04-20T15:46:03.679Z,51.54
2023-04-20T15:51:05.967Z,52.10
2023-04-20T15:56:08.736Z,52.21
2023-04-20T16:01:10.776Z,51.65
2023-04-20T16:06:13.707Z,52.12
2023-04-20T16:11:15.814Z,52.35
2023-04-20T16:16:19.189Z,52.15
2023-04-20T16:21:24.755Z,52.17
2023-04-20T16:26:26.890Z,52.28
2023-04-20T16:31:29.684Z,52.83
2023-04-20T16:36:38.263Z,53.69
2023-04-20T16:41:40.222Z,54.15
2023-04-20T16:46:43.153Z,53.59
2023-04-20T16:51:45.985Z,53.62
2023-04-20T16:56:48.761Z,53.80
2023-04-20T17:01:51.250Z,54.29
2023-04-20T17:06:54.042Z,54.94
2023-04-20T17:11:59.154Z,55.40
2023-04-20T17:17:02.114Z,55.79
2023-04-20T17:22:04.749Z,56.21
2023-04-20T17:27:06.845Z,56.76
2023-04-20T17:32:09.388Z,57.36
2023-04-20T17:37:12.186Z,58.12
2023-04-20T17:42:16.581Z,58.80
2023-04-20T17:47:18.748Z,59.54
2023-04-20T17:52:22.412Z,60.65
2023-04-20T17:57:24.612Z,61.25
2023-04-20T18:02:26.554Z,61.88
2023-04-20T18:07:28.869Z,64.00
2023-04-20T18:12:31.401Z,64.30
2023-04-20T18:17:33.769Z,64.33
2023-04-20T18:22:37.118Z,64.05
2023-04-20T18:27:39.788Z,62.12
2023-04-20T18:32:42.059Z,61.87
2023-04-20T18:37:44.324Z,62.02
2023-04-20T18:42:46.341Z,62.29
2023-04-20T18:47:48.582Z,62.06
2023-04-20T18:52:51.427Z,63.01
2023-04-20T18:57:53.519Z,63.73
2023-04-20T19:02:55.769Z,62.47
2023-04-20T19:07:58.870Z,63.67
2023-04-20T19:13:01.261Z,64.17
2023-04-20T19:18:04.345Z,64.23
2023-04-20T19:23:08.682Z,64.66
2023-04-20T19:28:12.573Z,64.31
2023-04-20T19:33:15.089Z,63.93
2023-04-20T19:38:19.186Z,65.47
2023-04-20T19:43:21.357Z,65.32
2023-04-20T19:48:23.822Z,65.81
2023-04-20T19:53:26.370Z,66.76
2023-04-20T19:58:30.881Z,66.64
2023-04-20T20:03:32.868Z,67.50
2023-04-20T20:08:35.607Z,67.67
2023-04-20T20:13:37.443Z,68.13
2023-04-20T20:18:41.968Z,67.44
2023-04-20T20:23:44.009Z,68.87
2023-04-20T20:28:46.268Z,67.77
2023-04-20T20:33:48.113Z,67.85
2023-04-20T20:38:53.670Z,68.29
2023-04-20T20:43:58.164Z,69.68
2023-04-20T20:49:01.180Z,70.60
2023-04-20T20:54:03.750Z,70.33
2023-04-20T20:59:06.054Z,71.65
2023-04-20T21:04:08.230Z,72.27
2023-04-20T21:09:10.969Z,72.80
2023-04-20T21:14:13.487Z,73.30
2023-04-20T21:19:16.142Z,73.76
2023-04-20T21:24:19.299Z,74.15
2023-04-20T21:29:21.553Z,74.18
2023-04-20T21:34:23.872Z,74.37
2023-04-20T21:39:25.966Z,74.44
2023-04-20T21:44:29.917Z,74.51
2023-04-20T21:49:34.521Z,74.59
2023-04-20T21:54:40.943Z,74.92
2023-04-20T21:59:43.019Z,75.13
2023-04-20T22:04:45.795Z,75.31
2023-04-20T22:09:47.957Z,75.52
2023-04-20T22:14:49.872Z,75.64
2023-04-20T22:19:52.328Z,75.76
2023-04-20T22:24:54.718Z,76.00
2023-04-20T22:29:56.838Z,76.29
2023-04-20T22:34:58.791Z,76.68
2023-04-20T22:40:00.905Z,77.02
2023-04-20T22:45:04.246Z,77.59
2023-04-20T22:50:09.813Z,77.88
2023-04-20T22:55:11.981Z,78.14
2023-04-20T23:00:14.646Z,78.10
2023-04-20T23:05:20.457Z,78.29
2023-04-20T23:10:28.652Z,78.46
2023-04-20T23:15:34.256Z,78.58
2023-04-20T23:20:39.867Z,78.65
2023-04-20T23:25:42.067Z,78.84
2023-04-20T23:30:44.311Z,78.74
2023-04-20T23:35:46.312Z,78.76
2023-04-20T23:40:50.492Z,78.94
2023-04-20T23:45:53.686Z,79.12
2023-04-20T23:51:02.015Z,79.37
2023-04-20T23:56:05.262Z,79.57
